createdAt,value
2018-09-18T00:00:16.948Z,13.3
2018-09-18T00:01:18.485Z,13.2
2018-09-18T00:02:20.167Z,13.4
2018-09-18T00:03:21.781Z,13.2
2018-09-18T00:04:23.315Z,13.4
2018-09-18T00:05:25.101Z,13.3
2018-09-18T00:06:26.577Z,13.3
2018-09-18T00:07:28.121Z,13.4
2018-09-18T00:08:29.586Z,13.3
2018-09-18T00:09:31.199Z,13.3
2018-09-18T00:10:32.660Z,13.3
2018-09-18T00:11:34.357Z,13.3
2018-09-18T00:12:35.838Z,13.2
2018-09-18T00:13:37.541Z,13.3
2018-09-18T00:14:39.039Z,13.3
2018-09-18T00:15:40.813Z,13.2
2018-09-18T00:16:42.315Z,13.2
2018-09-18T00:17:44.013Z,13.3
2018-09-18T00:18:45.460Z,13.2
2018-09-18T00:19:47.070Z,13.2
2018-09-18T00:20:48.587Z,13.3
2018-09-18T00:21:50.186Z,13.2
2018-09-18T00:22:51.724Z,13.2
2018-09-18T00:23:53.470Z,13.1
2018-09-18T00:24:55.408Z,13.2
2018-09-18T00:25:57.304Z,13.2
2018-09-18T00:26:58.844Z,13.2
2018-09-18T00:28:00.549Z,13.1
2018-09-18T00:29:02.048Z,13.0
2018-09-18T00:30:03.781Z,13.1
2018-09-18T00:31:05.444Z,13.1
2018-09-18T00:32:07.291Z,13.1
2018-09-18T00:33:08.892Z,13.0
2018-09-18T00:34:10.599Z,13.1
2018-09-18T00:35:12.183Z,13.1
2018-09-18T00:36:13.928Z,13.1
2018-09-18T00:37:15.466Z,13.1
2018-09-18T00:38:17.180Z,13.1
2018-09-18T00:39:18.797Z,13.0
2018-09-18T00:40:20.453Z,13.0
2018-09-18T00:41:22.063Z,13.0
2018-09-18T00:42:23.800Z,13.1
2018-09-18T00:43:25.417Z,13.0
2018-09-18T00:44:27.260Z,13.0
2018-09-18T00:45:28.798Z,13.0
2018-09-18T00:46:30.448Z,13.0
2018-09-18T00:47:32.201Z,13.0
2018-09-18T00:48:33.948Z,13.1
2018-09-18T00:49:35.440Z,13.1
2018-09-18T00:50:36.906Z,13.0
2018-09-18T00:51:38.553Z,13.0
2018-09-18T00:52:40.144Z,13.0
2018-09-18T00:53:41.710Z,13.0
2018-09-18T00:54:43.487Z,13.0
2018-09-18T00:55:45.053Z,13.0
2018-09-18T00:56:46.642Z,13.0
2018-09-18T00:57:48.538Z,13.0
2018-09-18T00:58:50.112Z,13.1
2018-09-18T00:59:51.646Z,13.0
2018-09-18T01:00:53.351Z,13.0
2018-09-18T01:01:54.862Z,12.9
2018-09-18T01:02:56.371Z,12.9
2018-09-18T01:03:58.018Z,12.9
2018-09-18T01:04:59.538Z,12.9
2018-09-18T01:06:01.197Z,12.9
2018-09-18T01:07:03.088Z,12.9
2018-09-18T01:08:04.695Z,12.9
2018-09-18T01:09:06.255Z,12.9
2018-09-18T01:10:07.908Z,12.9
2018-09-18T01:11:09.637Z,12.8
2018-09-18T01:12:11.087Z,12.8
2018-09-18T01:13:12.818Z,12.9
2018-09-18T01:14:14.390Z,12.8
2018-09-18T01:15:16.410Z,12.8
2018-09-18T01:16:17.973Z,12.8
2018-09-18T01:17:19.464Z,12.8
2018-09-18T01:18:21.096Z,12.8
2018-09-18T01:19:22.579Z,12.8
2018-09-18T01:20:24.043Z,12.7
2018-09-18T01:21:25.786Z,12.7
2018-09-18T01:22:27.224Z,12.7
2018-09-18T01:23:28.938Z,12.7
2018-09-18T01:24:30.474Z,12.7
2018-09-18T01:25:32.238Z,12.7
2018-09-18T01:26:33.841Z,12.6
2018-09-18T01:27:35.487Z,12.7
2018-09-18T01:28:37.035Z,12.6
2018-09-18T01:29:38.790Z,12.6
2018-09-18T01:30:40.338Z,12.6
2018-09-18T01:31:42.019Z,12.6
2018-09-18T01:32:43.490Z,12.6
2018-09-18T01:33:45.104Z,12.6
2018-09-18T01:34:46.575Z,12.6
2018-09-18T01:35:48.216Z,12.5
2018-09-18T01:36:49.725Z,12.5
2018-09-18T01:37:51.486Z,12.5
2018-09-18T01:38:53.001Z,12.6
2018-09-18T01:39:55.124Z,12.5
2018-09-18T01:40:56.726Z,12.5
2018-09-18T01:41:58.692Z,12.5
2018-09-18T01:43:00.354Z,12.5
2018-09-18T01:44:02.067Z,12.5
2018-09-18T01:45:03.542Z,12.4
2018-09-18T01:46:05.433Z,12.4
2018-09-18T01:47:07.093Z,12.5
2018-09-18T01:48:08.783Z,12.5
2018-09-18T01:49:10.489Z,12.5
2018-09-18T01:50:12.362Z,12.5
2018-09-18T01:51:14.067Z,12.5
2018-09-18T01:52:15.875Z,12.5
2018-09-18T01:53:17.509Z,12.5
2018-09-18T01:54:19.422Z,12.4
2018-09-18T01:55:20.902Z,12.5
2018-09-18T01:56:22.364Z,12.5
2018-09-18T01:57:24.184Z,12.5
2018-09-18T01:58:25.679Z,12.4
2018-09-18T01:59:27.137Z,12.4
2018-09-18T02:00:28.791Z,12.4
2018-09-18T02:01:30.433Z,12.4
2018-09-18T02:02:32.099Z,12.3
2018-09-18T02:03:33.828Z,12.3
2018-09-18T02:04:35.500Z,12.4
2018-09-18T02:05:37.157Z,12.3
2018-09-18T02:06:38.946Z,12.4
2018-09-18T02:07:40.568Z,12.4
2018-09-18T02:08:42.150Z,12.4
2018-09-18T02:09:43.736Z,12.4
2018-09-18T02:10:45.365Z,12.4
2018-09-18T02:11:47.013Z,12.3
2018-09-18T02:12:48.839Z,12.3
2018-09-18T02:13:50.436Z,12.4
2018-09-18T02:14:52.126Z,12.4
2018-09-18T02:15:53.992Z,12.4
2018-09-18T02:16:55.585Z,12.4
2018-09-18T02:17:57.256Z,12.3
2018-09-18T02:18:59.155Z,12.3
2018-09-18T02:20:00.835Z,12.4
2018-09-18T02:21:02.422Z,12.4
2018-09-18T02:22:04.232Z,12.4
2018-09-18T02:23:05.874Z,12.2
2018-09-18T02:24:07.679Z,12.3
2018-09-18T02:25:09.363Z,12.3
2018-09-18T02:26:11.129Z,12.4
2018-09-18T02:27:12.698Z,12.3
2018-09-18T02:28:14.290Z,12.3
2018-09-18T02:29:16.128Z,12.2
2018-09-18T02:30:17.671Z,12.3
2018-09-18T02:31:19.416Z,12.3
2018-09-18T02:32:21.287Z,12.3
2018-09-18T02:33:22.923Z,12.3
2018-09-18T02:34:24.552Z,12.3
2018-09-18T02:35:26.471Z,12.3
2018-09-18T02:36:28.075Z,12.3
2018-09-18T02:37:29.854Z,12.3
2018-09-18T02:38:31.567Z,12.3
2018-09-18T02:39:33.059Z,12.3
2018-09-18T02:40:34.654Z,12.3
2018-09-18T02:41:36.396Z,12.3
2018-09-18T02:42:37.891Z,12.3
2018-09-18T02:43:39.577Z,12.3
2018-09-18T02:44:41.305Z,12.3
2018-09-18T02:45:43.151Z,12.3
2018-09-18T02:46:44.667Z,12.3
2018-09-18T02:47:46.210Z,12.3
2018-09-18T02:48:48.039Z,12.3
2018-09-18T02:49:49.702Z,12.3
2018-09-18T02:50:51.396Z,12.3
2018-09-18T02:51:53.132Z,12.2
2018-09-18T02:52:54.772Z,12.3
2018-09-18T02:53:56.667Z,12.3
2018-09-18T02:54:58.299Z,12.2
2018-09-18T02:56:00.184Z,12.3
2018-09-18T02:57:01.819Z,12.3
2018-09-18T02:58:03.738Z,12.2
2018-09-18T02:59:05.388Z,12.2
2018-09-18T03:00:07.958Z,12.3
2018-09-18T03:01:09.587Z,12.3
2018-09-18T03:02:11.158Z,12.2
2018-09-18T03:03:12.906Z,12.2
2018-09-18T03:04:14.450Z,12.3
2018-09-18T03:05:16.044Z,12.3
2018-09-18T03:06:17.835Z,12.2
2018-09-18T03:07:19.423Z,12.3
2018-09-18T03:08:21.071Z,12.2
2018-09-18T03:09:22.757Z,12.2
2018-09-18T03:10:24.375Z,12.3
2018-09-18T03:11:26.187Z,12.2
2018-09-18T03:12:27.603Z,12.3
2018-09-18T03:13:29.240Z,12.1
2018-09-18T03:14:30.957Z,12.2
2018-09-18T03:15:32.580Z,12.2
2018-09-18T03:16:34.159Z,12.2
2018-09-18T03:17:35.895Z,12.2
2018-09-18T03:18:37.626Z,12.2
2018-09-18T03:19:39.630Z,12.2
2018-09-18T03:20:41.225Z,12.2
2018-09-18T03:21:43.010Z,12.2
2018-09-18T03:22:44.582Z,12.2
2018-09-18T03:23:46.196Z,12.2
2018-09-18T03:24:48.028Z,12.3
2018-09-18T03:25:49.784Z,12.2
2018-09-18T03:26:51.406Z,12.2
2018-09-18T03:27:53.176Z,12.2
2018-09-18T03:28:54.774Z,12.2
2018-09-18T03:29:56.381Z,12.2
2018-09-18T03:30:58.251Z,12.2
2018-09-18T03:31:59.781Z,12.2
2018-09-18T03:33:01.360Z,12.3
2018-09-18T03:34:03.042Z,12.2
2018-09-18T03:35:04.626Z,12.2
2018-09-18T03:36:06.396Z,12.2
2018-09-18T03:37:07.948Z,12.3
2018-09-18T03:38:09.603Z,12.2
2018-09-18T03:39:11.769Z,12.2
2018-09-18T03:40:13.403Z,12.2
2018-09-18T03:41:15.093Z,12.3
2018-09-18T03:42:16.848Z,12.2
2018-09-18T03:43:18.421Z,12.3
2018-09-18T03:44:20.091Z,12.2
2018-09-18T03:45:21.837Z,12.3
2018-09-18T03:46:23.433Z,12.3
2018-09-18T03:47:25.095Z,12.2
2018-09-18T03:48:26.699Z,12.3
2018-09-18T03:49:28.327Z,12.2
2018-09-18T03:50:29.951Z,12.2
2018-09-18T03:51:31.615Z,12.2
2018-09-18T03:52:33.259Z,12.2
2018-09-18T03:53:34.950Z,12.3
2018-09-18T03:54:36.534Z,12.2
2018-09-18T03:55:38.171Z,12.3
2018-09-18T03:56:39.773Z,12.2
2018-09-18T03:57:41.505Z,12.2
2018-09-18T03:58:43.219Z,12.3
2018-09-18T03:59:44.849Z,12.2
2018-09-18T04:00:46.646Z,12.2
2018-09-18T04:01:48.319Z,12.2
2018-09-18T04:02:49.923Z,12.2
2018-09-18T04:03:51.595Z,12.2
2018-09-18T04:04:53.270Z,12.2
2018-09-18T04:05:54.878Z,12.2
2018-09-18T04:06:56.698Z,12.2
2018-09-18T04:07:58.323Z,12.3
2018-09-18T04:09:00.137Z,12.3
2018-09-18T04:10:01.888Z,12.2
2018-09-18T04:11:03.475Z,12.2
2018-09-18T04:12:05.017Z,12.2
2018-09-18T04:13:06.873Z,12.3
2018-09-18T04:14:08.405Z,12.3
2018-09-18T04:15:09.985Z,12.3
2018-09-18T04:16:11.757Z,12.3
2018-09-18T04:17:13.360Z,12.3
2018-09-18T04:18:14.940Z,12.2
2018-09-18T04:19:16.704Z,12.2
2018-09-18T04:20:18.315Z,12.3
2018-09-18T04:21:20.130Z,12.3
2018-09-18T04:22:21.749Z,12.2
2018-09-18T04:23:23.444Z,12.3
2018-09-18T04:24:25.124Z,12.2
2018-09-18T04:25:26.716Z,12.3
2018-09-18T04:26:28.272Z,12.2
2018-09-18T04:27:29.903Z,12.2
2018-09-18T04:28:31.557Z,12.3
2018-09-18T04:29:33.005Z,12.2
2018-09-18T04:30:34.769Z,12.3
2018-09-18T04:31:36.438Z,12.2
2018-09-18T04:32:38.274Z,12.3
2018-09-18T04:33:39.910Z,12.2
2018-09-18T04:34:41.580Z,12.3
2018-09-18T04:35:43.516Z,12.3
2018-09-18T04:36:45.135Z,12.3
2018-09-18T04:37:46.666Z,12.3
2018-09-18T04:38:48.561Z,12.2
2018-09-18T04:39:50.218Z,12.2
2018-09-18T04:40:52.064Z,12.3
2018-09-18T04:41:53.757Z,12.3
2018-09-18T04:42:55.639Z,12.3
2018-09-18T04:43:57.310Z,12.4
2018-09-18T04:44:59.025Z,12.4
2018-09-18T04:46:00.718Z,12.4
2018-09-18T04:47:02.379Z,12.4
2018-09-18T04:48:04.046Z,12.4
2018-09-18T04:49:05.898Z,12.4
2018-09-18T04:50:07.653Z,12.4
2018-09-18T04:51:09.233Z,12.4
2018-09-18T04:52:10.691Z,12.3
2018-09-18T04:53:12.252Z,12.4
2018-09-18T04:54:13.689Z,12.4
2018-09-18T04:55:15.673Z,12.4
2018-09-18T04:56:17.125Z,12.4
2018-09-18T04:57:18.897Z,12.4
2018-09-18T04:58:20.574Z,12.4
2018-09-18T04:59:22.396Z,12.4
2018-09-18T05:00:24.196Z,12.4
2018-09-18T05:01:25.789Z,12.3
2018-09-18T05:02:27.411Z,12.4
2018-09-18T05:03:29.258Z,12.3
2018-09-18T05:04:30.749Z,12.4
2018-09-18T05:05:32.440Z,12.4
2018-09-18T05:06:34.569Z,12.4
2018-09-18T05:07:36.372Z,12.5
2018-09-18T05:08:37.964Z,12.5
2018-09-18T05:09:40.548Z,12.3
2018-09-18T05:10:42.041Z,12.4
2018-09-18T05:11:44.223Z,12.4
2018-09-18T05:12:45.900Z,12.4
2018-09-18T05:13:47.633Z,12.5
2018-09-18T05:14:49.249Z,12.5
2018-09-18T05:15:50.941Z,12.5
2018-09-18T05:16:52.516Z,12.5
2018-09-18T05:17:54.182Z,12.5
2018-09-18T05:18:55.610Z,12.5
2018-09-18T05:19:57.323Z,12.6
2018-09-18T05:20:58.699Z,12.6
2018-09-18T05:22:00.471Z,12.5
2018-09-18T05:23:01.983Z,12.6
2018-09-18T05:24:03.685Z,12.6
2018-09-18T05:25:05.133Z,12.5
2018-09-18T05:26:06.795Z,12.6
2018-09-18T05:27:08.250Z,12.6
2018-09-18T05:28:09.952Z,12.6
2018-09-18T05:29:11.549Z,12.6
2018-09-18T05:30:13.209Z,12.6
2018-09-18T05:31:14.787Z,12.6
2018-09-18T05:32:16.525Z,12.7
2018-09-18T05:33:18.124Z,12.8
2018-09-18T05:34:19.784Z,12.7
2018-09-18T05:35:21.355Z,12.7
2018-09-18T05:36:22.883Z,12.7
2018-09-18T05:37:24.507Z,12.7
2018-09-18T05:38:26.091Z,12.7
2018-09-18T05:39:27.564Z,12.8
2018-09-18T05:40:29.169Z,12.8
2018-09-18T05:41:30.788Z,12.8
2018-09-18T05:42:32.536Z,12.9
2018-09-18T05:43:34.261Z,12.8
2018-09-18T05:44:36.277Z,12.8
2018-09-18T05:45:38.020Z,12.9
2018-09-18T05:46:39.569Z,12.9
2018-09-18T05:47:41.277Z,12.9
2018-09-18T05:48:43.208Z,12.9
2018-09-18T05:49:44.900Z,12.9
2018-09-18T05:50:46.596Z,12.9
2018-09-18T05:51:48.507Z,13.0
2018-09-18T05:52:50.067Z,13.0
2018-09-18T05:53:51.937Z,13.0
2018-09-18T05:54:53.622Z,13.0
2018-09-18T05:55:55.481Z,13.0
2018-09-18T05:56:57.219Z,13.1
2018-09-18T05:57:58.942Z,13.1
2018-09-18T05:59:00.597Z,13.0
2018-09-18T06:00:02.084Z,13.1
2018-09-18T06:01:03.718Z,13.2
2018-09-18T06:02:05.415Z,13.1
2018-09-18T06:03:06.974Z,13.3
2018-09-18T06:04:08.708Z,13.2
2018-09-18T06:05:10.249Z,13.2
2018-09-18T06:06:11.866Z,13.3
2018-09-18T06:07:13.465Z,13.3
2018-09-18T06:08:15.789Z,13.4
2018-09-18T06:09:17.373Z,13.3
2018-09-18T06:10:19.091Z,13.4
2018-09-18T06:11:20.684Z,13.4
2018-09-18T06:12:22.270Z,13.4
2018-09-18T06:13:24.356Z,13.4
2018-09-18T06:14:26.283Z,13.4
2018-09-18T06:15:28.634Z,13.5
2018-09-18T06:16:30.233Z,13.6
2018-09-18T06:17:31.985Z,13.6
2018-09-18T06:18:33.544Z,13.6
2018-09-18T06:19:35.318Z,13.6
2018-09-18T06:20:36.890Z,13.6
2018-09-18T06:21:38.663Z,13.6
2018-09-18T06:22:40.232Z,13.7
2018-09-18T06:23:41.918Z,13.6
2018-09-18T06:24:43.463Z,13.7
2018-09-18T06:25:45.403Z,13.8
2018-09-18T06:26:46.986Z,13.9
2018-09-18T06:27:48.692Z,14.2
2018-09-18T06:28:50.326Z,14.5
2018-09-18T06:29:51.996Z,14.7
2018-09-18T06:30:53.599Z,14.9
2018-09-18T06:31:55.210Z,15.2
2018-09-18T06:32:56.856Z,15.5
2018-09-18T06:33:58.501Z,15.6
2018-09-18T06:35:00.087Z,15.8
2018-09-18T06:36:01.685Z,15.9
2018-09-18T06:37:03.550Z,16.2
2018-09-18T06:38:05.101Z,16.4
2018-09-18T06:39:07.118Z,16.7
2018-09-18T06:40:09.274Z,17.1
2018-09-18T06:41:10.814Z,17.3
2018-09-18T06:42:12.403Z,17.6
2018-09-18T06:43:14.104Z,17.8
2018-09-18T06:44:15.550Z,18.0
2018-09-18T06:45:17.181Z,18.2
2018-09-18T06:46:18.923Z,18.4
2018-09-18T06:47:20.712Z,18.5
2018-09-18T06:48:22.420Z,18.7
2018-09-18T06:49:24.183Z,18.9
2018-09-18T06:50:25.600Z,19.2
2018-09-18T06:51:27.089Z,19.4
2018-09-18T06:52:28.664Z,19.6
2018-09-18T06:53:30.101Z,19.7
2018-09-18T06:54:31.789Z,20.0
2018-09-18T06:55:33.194Z,20.1
2018-09-18T06:56:34.801Z,20.2
2018-09-18T06:57:36.270Z,20.3
2018-09-18T06:58:37.899Z,20.5
2018-09-18T06:59:39.371Z,20.7
2018-09-18T07:00:41.001Z,20.8
2018-09-18T07:01:42.504Z,21.0
2018-09-18T07:02:44.054Z,21.1
2018-09-18T07:03:45.615Z,21.3
2018-09-18T07:04:47.119Z,21.3
2018-09-18T07:05:48.529Z,21.4
2018-09-18T07:06:50.194Z,21.5
2018-09-18T07:07:51.606Z,21.6
2018-09-18T07:08:53.470Z,21.7
2018-09-18T07:09:55.699Z,21.8
2018-09-18T07:10:57.145Z,21.9
2018-09-18T07:11:58.696Z,21.9
2018-09-18T07:13:00.496Z,21.9
2018-09-18T07:14:01.920Z,21.8
2018-09-18T07:15:03.605Z,21.8
2018-09-18T07:16:05.407Z,21.7
2018-09-18T07:17:06.908Z,21.6
2018-09-18T07:18:08.605Z,21.4
2018-09-18T07:19:10.365Z,21.3
2018-09-18T07:20:12.023Z,21.1
2018-09-18T07:21:13.501Z,20.9
2018-09-18T07:22:15.129Z,20.8
2018-09-18T07:23:16.947Z,20.6
2018-09-18T07:24:18.623Z,20.5
2018-09-18T07:25:20.048Z,20.4
2018-09-18T07:26:21.698Z,20.3
2018-09-18T07:27:23.068Z,20.2
2018-09-18T07:28:24.566Z,20.2
2018-09-18T07:29:26.063Z,20.1
2018-09-18T07:30:27.482Z,20.0
2018-09-18T07:31:29.131Z,20.0
2018-09-18T07:32:30.604Z,19.9
2018-09-18T07:33:32.038Z,19.9
2018-09-18T07:34:33.630Z,19.9
2018-09-18T07:35:35.113Z,20.0
2018-09-18T07:36:36.652Z,19.9
2018-09-18T07:37:38.178Z,19.9
2018-09-18T07:38:39.634Z,19.9
2018-09-18T07:39:41.113Z,19.9
2018-09-18T07:40:42.700Z,19.9
2018-09-18T07:41:44.140Z,19.9
2018-09-18T07:42:45.642Z,19.9
2018-09-18T07:43:47.065Z,19.9
2018-09-18T07:44:49.002Z,19.9
2018-09-18T07:45:50.455Z,19.9
2018-09-18T07:46:52.691Z,19.9
2018-09-18T07:47:54.219Z,19.9
2018-09-18T07:48:55.702Z,19.9
2018-09-18T07:49:57.166Z,19.9
2018-09-18T07:50:58.724Z,19.9
2018-09-18T07:52:00.186Z,19.9
2018-09-18T07:53:02.025Z,19.9
2018-09-18T07:54:04.461Z,20.0
2018-09-18T07:55:06.328Z,20.1
2018-09-18T07:56:07.759Z,20.0
2018-09-18T07:57:09.302Z,20.1
2018-09-18T07:58:10.789Z,20.1
2018-09-18T07:59:12.239Z,20.1
2018-09-18T08:00:14.314Z,20.2
2018-09-18T08:01:15.765Z,20.2
2018-09-18T08:02:17.182Z,20.2
2018-09-18T08:03:18.862Z,20.3
2018-09-18T08:04:20.274Z,20.3
2018-09-18T08:05:21.985Z,20.4
2018-09-18T08:06:23.435Z,20.5
2018-09-18T08:07:25.053Z,20.5
2018-09-18T08:08:26.491Z,20.6
2018-09-18T08:09:28.116Z,20.6
2018-09-18T08:10:29.551Z,20.7
2018-09-18T08:11:31.225Z,20.7
2018-09-18T08:12:32.657Z,20.7
2018-09-18T08:13:34.543Z,20.9
2018-09-18T08:14:36.183Z,20.9
2018-09-18T08:15:37.731Z,20.8
2018-09-18T08:16:39.241Z,21.0
2018-09-18T08:17:40.899Z,21.0
2018-09-18T08:18:42.330Z,21.2
2018-09-18T08:19:43.979Z,21.1
2018-09-18T08:20:45.401Z,21.2
2018-09-18T08:21:46.926Z,21.3
2018-09-18T08:22:48.392Z,21.3
2018-09-18T08:23:49.982Z,21.4
2018-09-18T08:24:51.401Z,21.5
2018-09-18T08:25:52.838Z,21.6
2018-09-18T08:26:54.462Z,21.8
2018-09-18T08:27:55.890Z,21.9
2018-09-18T08:28:57.426Z,22.0
2018-09-18T08:29:58.894Z,22.0
2018-09-18T08:31:00.442Z,22.1
2018-09-18T08:32:01.877Z,22.2
2018-09-18T08:33:03.395Z,22.3
2018-09-18T08:34:04.985Z,22.4
2018-09-18T08:35:06.407Z,22.4
2018-09-18T08:36:07.907Z,22.5
2018-09-18T08:37:09.512Z,22.6
2018-09-18T08:38:10.948Z,22.8
2018-09-18T08:39:12.595Z,22.9
2018-09-18T08:40:14.060Z,23.0
2018-09-18T08:41:15.694Z,23.2
2018-09-18T08:42:17.128Z,23.5
2018-09-18T08:43:18.766Z,23.8
2018-09-18T08:44:20.229Z,24.0
2018-09-18T08:45:21.822Z,24.4
2018-09-18T08:46:23.258Z,24.5
2018-09-18T08:47:24.956Z,24.6
2018-09-18T08:48:26.377Z,24.7
2018-09-18T08:49:27.988Z,24.7
2018-09-18T08:50:29.476Z,24.8
2018-09-18T08:51:31.125Z,24.8
2018-09-18T08:52:32.593Z,24.9
2018-09-18T08:53:34.075Z,25.0
2018-09-18T08:54:35.683Z,25.1
2018-09-18T08:55:37.078Z,25.0
2018-09-18T08:56:38.499Z,25.0
2018-09-18T08:57:40.134Z,24.9
2018-09-18T08:58:41.562Z,24.9
2018-09-18T08:59:43.230Z,24.9
2018-09-18T09:00:44.647Z,24.9
2018-09-18T09:01:46.398Z,24.9
2018-09-18T09:02:47.744Z,24.8
2018-09-18T09:03:49.451Z,24.9
2018-09-18T09:04:50.903Z,25.0
2018-09-18T09:05:52.922Z,24.9
2018-09-18T09:06:54.344Z,25.0
2018-09-18T09:07:55.877Z,24.9
2018-09-18T09:08:57.863Z,24.9
2018-09-18T09:09:59.185Z,24.9
2018-09-18T09:11:00.690Z,24.9
2018-09-18T09:12:02.115Z,24.9
2018-09-18T09:13:03.591Z,24.8
2018-09-18T09:14:05.118Z,24.8
2018-09-18T09:15:06.636Z,24.8
2018-09-18T09:16:08.094Z,24.8
2018-09-18T09:17:09.548Z,24.8
2018-09-18T09:18:11.030Z,24.9
2018-09-18T09:19:12.622Z,24.9
2018-09-18T09:20:14.424Z,24.9
2018-09-18T09:21:15.861Z,24.8
2018-09-18T09:22:17.631Z,24.8
2018-09-18T09:23:18.976Z,24.8
2018-09-18T09:24:20.633Z,24.8
2018-09-18T09:25:22.030Z,24.9
2018-09-18T09:26:23.488Z,24.9
2018-09-18T09:27:24.972Z,24.9
2018-09-18T09:28:26.348Z,25.0
2018-09-18T09:29:27.833Z,25.1
2018-09-18T09:30:29.274Z,25.0
2018-09-18T09:31:31.049Z,25.1
2018-09-18T09:32:32.658Z,25.1
2018-09-18T09:33:34.474Z,25.1
2018-09-18T09:34:35.944Z,25.2
2018-09-18T09:35:37.522Z,25.2
2018-09-18T09:36:38.982Z,25.3
2018-09-18T09:37:40.438Z,25.4
2018-09-18T09:38:42.073Z,25.4
2018-09-18T09:39:43.480Z,25.3
2018-09-18T09:40:44.938Z,25.5
2018-09-18T09:41:46.605Z,25.5
2018-09-18T09:42:48.047Z,25.5
2018-09-18T09:43:49.549Z,25.6
2018-09-18T09:44:51.111Z,25.7
2018-09-18T09:45:52.518Z,25.8
2018-09-18T09:46:53.961Z,25.9
2018-09-18T09:47:55.607Z,26.1
2018-09-18T09:48:57.077Z,26.1
2018-09-18T09:49:58.529Z,26.1
2018-09-18T09:51:00.163Z,26.2
2018-09-18T09:52:01.605Z,26.2
2018-09-18T09:53:03.073Z,26.3
2018-09-18T09:54:04.661Z,26.4
2018-09-18T09:55:06.108Z,26.5
2018-09-18T09:56:07.788Z,26.8
2018-09-18T09:57:09.201Z,26.9
2018-09-18T09:58:10.639Z,27.1
2018-09-18T09:59:12.415Z,27.4
2018-09-18T10:00:13.883Z,27.6
2018-09-18T10:01:15.374Z,27.8
2018-09-18T10:02:17.051Z,27.6
2018-09-18T10:03:18.480Z,27.4
2018-09-18T10:04:19.954Z,27.3
2018-09-18T10:05:21.531Z,27.1
2018-09-18T10:06:23.009Z,27.1
2018-09-18T10:07:24.461Z,27.1
2018-09-18T10:08:26.095Z,27.0
2018-09-18T10:09:27.637Z,27.0
2018-09-18T10:10:29.242Z,27.1
2018-09-18T10:11:30.722Z,27.1
2018-09-18T10:12:32.276Z,27.3
2018-09-18T10:13:33.758Z,27.7
2018-09-18T10:14:35.236Z,28.6
2018-09-18T10:15:36.885Z,29.4
2018-09-18T10:16:38.223Z,30.0
2018-09-18T10:17:39.720Z,30.1
2018-09-18T10:18:41.090Z,30.0
2018-09-18T10:19:42.567Z,29.6
2018-09-18T10:20:43.990Z,29.2
2018-09-18T10:21:45.599Z,28.8
2018-09-18T10:22:47.131Z,28.7
2018-09-18T10:23:48.598Z,28.6
2018-09-18T10:24:50.615Z,28.4
2018-09-18T10:25:52.132Z,28.2
2018-09-18T10:26:53.617Z,28.1
2018-09-18T10:27:55.332Z,28.0
2018-09-18T10:28:56.839Z,27.8
2018-09-18T10:29:58.699Z,27.8
2018-09-18T10:31:00.293Z,27.8
2018-09-18T10:32:01.756Z,27.7
2018-09-18T10:33:03.169Z,27.7
2018-09-18T10:34:04.753Z,27.7
2018-09-18T10:35:06.241Z,27.8
2018-09-18T10:36:07.899Z,27.7
2018-09-18T10:37:09.307Z,27.8
2018-09-18T10:38:10.924Z,27.6
2018-09-18T10:39:12.352Z,27.5
2018-09-18T10:40:13.772Z,27.5
2018-09-18T10:41:15.968Z,27.5
2018-09-18T10:42:17.263Z,27.4
2018-09-18T10:43:18.794Z,27.5
2018-09-18T10:44:20.371Z,27.5
2018-09-18T10:45:21.790Z,27.5
2018-09-18T10:46:23.474Z,27.5
2018-09-18T10:47:24.923Z,27.4
2018-09-18T10:48:26.573Z,27.4
2018-09-18T10:49:28.025Z,27.4
2018-09-18T10:50:29.434Z,27.3
2018-09-18T10:51:30.879Z,27.3
2018-09-18T10:52:32.500Z,27.2
2018-09-18T10:53:33.943Z,27.3
2018-09-18T10:54:35.608Z,27.2
2018-09-18T10:55:37.066Z,27.3
2018-09-18T10:56:38.696Z,27.3
2018-09-18T10:57:40.144Z,27.3
2018-09-18T10:58:41.584Z,27.3
2018-09-18T10:59:43.207Z,27.2
2018-09-18T11:00:44.684Z,27.2
2018-09-18T11:01:46.116Z,27.2
2018-09-18T11:02:47.759Z,27.2
2018-09-18T11:03:49.264Z,27.1
2018-09-18T11:04:50.691Z,27.2
2018-09-18T11:05:52.239Z,27.1
2018-09-18T11:06:53.768Z,27.1
2018-09-18T11:07:55.228Z,27.1
2018-09-18T11:08:56.871Z,27.2
2018-09-18T11:09:58.807Z,27.2
2018-09-18T11:11:00.305Z,27.2
2018-09-18T11:12:01.897Z,27.1
2018-09-18T11:13:03.361Z,27.2
2018-09-18T11:14:04.830Z,27.1
2018-09-18T11:15:06.215Z,27.0
2018-09-18T11:16:07.856Z,27.1
2018-09-18T11:17:09.268Z,27.0
2018-09-18T11:18:10.664Z,27.0
2018-09-18T11:19:12.239Z,27.0
2018-09-18T11:20:13.677Z,27.0
2018-09-18T11:21:15.377Z,27.0
2018-09-18T11:22:16.863Z,27.0
2018-09-18T11:23:18.211Z,27.0
2018-09-18T11:24:19.637Z,27.0
2018-09-18T11:25:21.504Z,27.1
2018-09-18T11:26:23.162Z,27.0
2018-09-18T11:27:24.588Z,27.0
2018-09-18T11:28:26.054Z,27.0
2018-09-18T11:29:27.676Z,27.0
2018-09-18T11:30:29.110Z,27.1
2018-09-18T11:31:30.827Z,27.0
2018-09-18T11:32:32.258Z,27.0
2018-09-18T11:33:33.628Z,27.0
2018-09-18T11:34:35.069Z,27.1
2018-09-18T11:35:36.527Z,27.1
2018-09-18T11:36:37.987Z,27.0
2018-09-18T11:37:39.445Z,27.0
2018-09-18T11:38:41.025Z,27.0
2018-09-18T11:39:42.496Z,27.0
2018-09-18T11:40:43.930Z,27.1
2018-09-18T11:41:45.559Z,27.1
2018-09-18T11:42:47.020Z,27.0
2018-09-18T11:43:48.461Z,27.1
2018-09-18T11:44:50.392Z,27.1
2018-09-18T11:45:51.888Z,27.1
2018-09-18T11:46:53.269Z,27.2
2018-09-18T11:47:54.805Z,27.1
2018-09-18T11:48:56.235Z,27.2
2018-09-18T11:49:57.684Z,27.2
2018-09-18T11:50:59.318Z,27.2
2018-09-18T11:52:00.823Z,27.1
2018-09-18T11:53:02.259Z,27.2
2018-09-18T11:54:03.842Z,27.2
2018-09-18T11:55:05.266Z,27.2
2018-09-18T11:56:06.810Z,27.2
2018-09-18T11:57:08.327Z,27.1
2018-09-18T11:58:09.840Z,27.2
2018-09-18T11:59:11.622Z,27.1
2018-09-18T12:00:13.039Z,27.2
2018-09-18T12:01:14.615Z,27.3
2018-09-18T12:02:16.009Z,27.3
2018-09-18T12:03:17.833Z,27.2
2018-09-18T12:04:19.338Z,27.2
2018-09-18T12:05:20.833Z,27.2
2018-09-18T12:06:22.327Z,27.3
2018-09-18T12:07:23.835Z,27.3
2018-09-18T12:08:25.309Z,27.3
